Knippa, Texas
Current Conditions -  °F | °C
As of 4:15 PM on Thursday 18 Dec 2014 (Local Time) from KUVA Reporting Station
Scattered Clouds Scattered Clouds  
Wind Chill: 62°   Ceiling: Unl
Heat Index: 62°   Visibility: 10mi
Dew Point: 54°   Wind: 6mph
Humidity: 73%   Direction: 110°ESE
Pressure: 30"   Gusts: NA
Location:  29.3°N, 99.64°W
Report Text: KUVA 182215Z AUTO 11005KT 10SM SCT026 17/12 A3000 RMK AO2 T01680120
Loading
Personal Weather Stations






























Interactive Weather Map New forecast layout! Learn more

10-Day Weather Forecast

Advertisements
Track Severe Weather on mobile